Time;durP1;ratioP1;P1;durP2;ratioP2;P2;SDS_P1;SDS_P2;PMS_P1;PMS_P2;Temp;Humidity;BMP_temperature;BMP_pressure;BME280_temperature;BME280_humidity;BME280_pressure;Samples;Min_cycle;Max_cycle;Signal;HPM_P1;HPM_P2
2022/01/28 00:02:14;;;;;;;9.00;0.70;;;5.70;99.90;;;;;;20817271;28;20049;-44
2022/01/28 00:12:15;;;;;;;9.82;0.82;;;5.80;99.90;;;;;;20815172;28;20514;-44
2022/01/28 00:42:55;;;;;;;7.25;0.32;;;5.60;99.90;;;;;;20803850;28;20510;-44
2022/01/28 00:52:56;;;;;;;1.02;0.30;;;5.60;99.90;;;;;;20834037;28;20927;-44
2022/01/28 01:02:57;;;;;;;7.05;0.63;;;5.60;99.90;;;;;;20797230;28;20050;-44
2022/01/28 01:12:58;;;;;;;2.08;0.55;;;5.70;99.90;;;;;;20814603;28;20463;-44
2022/01/28 01:23:24;;;;;;;1.83;0.45;;;5.90;99.90;;;;;;20818052;28;20124;-44
2022/01/28 01:33:26;;;;;;;1.92;0.25;;;6.00;99.90;;;;;;20828842;28;20106;-44
2022/01/28 01:43:44;;;;;;;6.32;0.68;;;6.10;99.90;;;;;;20829281;28;20042;-44
2022/01/28 01:53:44;;;;;;;5.43;0.47;;;6.10;99.90;;;;;;20854019;28;20052;-44
2022/01/28 02:03:45;;;;;;;3.20;0.20;;;6.10;99.90;;;;;;20850670;28;20068;-44
2022/01/28 02:13:49;;;;;;;3.20;0.65;;;6.10;99.90;;;;;;20852176;28;20033;-44
2022/01/28 02:23:57;;;;;;;1.40;0.35;;;6.30;99.90;;;;;;20837682;28;20053;-44
2022/01/28 02:33:59;;;;;;;0.30;0.10;;;6.30;99.90;;;;;;20841877;28;20548;-44
2022/01/28 02:54:15;;;;;;;1.27;0.28;;;6.40;99.90;;;;;;20841711;28;20040;-44
2022/01/28 03:14:53;;;;;;;1.02;0.20;;;6.20;99.90;;;;;;20821146;28;20048;-44
2022/01/28 03:24:57;;;;;;;3.38;0.98;;;6.00;99.90;;;;;;20835098;28;20055;-44
2022/01/28 03:34:58;;;;;;;2.15;0.45;;;5.90;99.90;;;;;;20816738;28;20034;-44
2022/01/28 03:44:59;;;;;;;0.93;0.25;;;5.80;99.90;;;;;;20842092;28;20060;-44
2022/01/28 03:55:00;;;;;;;1.15;0.28;;;5.60;99.90;;;;;;20813451;28;20048;-44
2022/01/28 04:15:34;;;;;;;10.82;1.45;;;5.50;99.90;;;;;;20843519;28;20497;-44
2022/01/28 04:25:35;;;;;;;1.23;0.35;;;5.40;99.90;;;;;;20836036;28;20046;-44
2022/01/28 04:35:36;;;;;;;0.37;0.17;;;5.30;99.90;;;;;;20826174;28;20044;-44
2022/01/28 04:45:51;;;;;;;1.70;0.38;;;5.10;99.90;;;;;;20840531;28;20403;-44
2022/01/28 04:56:13;;;;;;;5.25;0.77;;;4.90;99.90;;;;;;20827144;28;20043;-44
2022/01/28 05:06:42;;;;;;;2.00;0.80;;;4.90;99.90;;;;;;20819993;28;20561;-44
2022/01/28 05:27:09;;;;;;;1.95;0.20;;;4.70;99.90;;;;;;20810624;28;20405;-45
2022/01/28 05:37:09;;;;;;;3.67;0.75;;;4.50;99.90;;;;;;20833299;28;20532;-44
2022/01/28 05:47:14;;;;;;;7.40;2.00;;;4.50;99.90;;;;;;20867728;28;20595;-44
2022/01/28 05:57:15;;;;;;;1.33;0.10;;;4.40;99.90;;;;;;20853075;28;20242;-44
2022/01/28 06:07:16;;;;;;;8.15;0.40;;;4.20;99.90;;;;;;20854357;28;20048;-44
2022/01/28 06:17:16;;;;;;;9.27;0.55;;;4.10;99.90;;;;;;20849539;28;20040;-44
2022/01/28 06:27:17;;;;;;;0.30;0.10;;;4.00;99.90;;;;;;20860306;28;20045;-44
2022/01/28 06:37:17;;;;;;;1.15;0.20;;;4.00;99.90;;;;;;20852215;28;20091;-44
2022/01/28 06:47:18;;;;;;;2.95;0.40;;;3.90;99.90;;;;;;20846031;28;20488;-44
2022/01/28 06:57:19;;;;;;;2.88;0.57;;;3.80;99.90;;;;;;20828867;28;20527;-44
2022/01/28 07:07:23;;;;;;;1.20;0.30;;;3.90;99.90;;;;;;20849808;28;20517;-44
2022/01/28 07:17:23;;;;;;;0.57;0.20;;;3.90;99.90;;;;;;20845544;28;20444;-44
2022/01/28 07:27:24;;;;;;;6.73;0.40;;;4.00;99.90;;;;;;20840441;28;20060;-44
2022/01/28 07:37:25;;;;;;;2.30;0.63;;;4.00;99.90;;;;;;20839198;28;20296;-44
2022/01/28 07:47:25;;;;;;;1.00;0.37;;;4.10;99.90;;;;;;20821704;28;20304;-44
2022/01/28 07:57:26;;;;;;;5.28;0.57;;;4.00;99.90;;;;;;20855114;28;20991;-44
2022/01/28 08:07:27;;;;;;;4.57;0.52;;;4.00;99.90;;;;;;20837543;28;20037;-44
2022/01/28 08:17:28;;;;;;;3.55;0.73;;;3.90;99.90;;;;;;20855518;28;20045;-44
2022/01/28 08:27:29;;;;;;;2.40;0.88;;;4.00;99.90;;;;;;20844791;28;20100;-44
2022/01/28 08:37:29;;;;;;;1.92;0.45;;;4.00;99.90;;;;;;20844094;28;20051;-44
2022/01/28 08:47:30;;;;;;;5.07;0.90;;;4.20;99.90;;;;;;20825607;28;20080;-44
2022/01/28 08:57:31;;;;;;;2.35;0.93;;;4.40;99.90;;;;;;20835380;28;20029;-44
2022/01/28 09:07:32;;;;;;;0.95;0.40;;;4.80;99.90;;;;;;20827399;28;20080;-45
2022/01/28 09:17:34;;;;;;;3.33;0.40;;;5.20;99.90;;;;;;20859221;28;20371;-44
2022/01/28 09:27:34;;;;;;;3.00;1.15;;;5.70;99.90;;;;;;20857551;28;20629;-44
2022/01/28 09:37:35;;;;;;;2.08;0.82;;;6.10;99.90;;;;;;20837612;28;20049;-44
2022/01/28 09:47:37;;;;;;;1.80;0.93;;;6.40;99.90;;;;;;20855566;28;20044;-45
2022/01/28 09:57:40;;;;;;;9.55;2.78;;;6.60;99.90;;;;;;20852457;28;20052;-45
2022/01/28 10:08:08;;;;;;;2.55;0.80;;;7.00;99.90;;;;;;20845166;28;20052;-44
2022/01/28 10:18:09;;;;;;;4.88;0.40;;;7.10;99.90;;;;;;20854825;28;20029;-44
2022/01/28 10:28:12;;;;;;;3.33;0.68;;;7.30;99.90;;;;;;20850128;28;20095;-45
2022/01/28 10:38:37;;;;;;;5.18;0.60;;;7.50;99.90;;;;;;20832105;28;20098;-44
2022/01/28 10:48:58;;;;;;;4.65;0.50;;;7.80;99.90;;;;;;20826097;28;20046;-45
2022/01/28 10:59:00;;;;;;;5.30;0.45;;;8.50;99.90;;;;;;20827068;28;20686;-45
2022/01/28 11:09:01;;;;;;;4.72;1.45;;;8.90;99.90;;;;;;20869667;28;20412;-44
2022/01/28 11:19:05;;;;;;;13.00;1.98;;;9.30;99.90;;;;;;20861451;28;20169;-44
2022/01/28 11:29:19;;;;;;;7.95;0.50;;;9.80;99.90;;;;;;20861590;28;20033;-45
2022/01/28 11:39:34;;;;;;;3.33;0.75;;;10.40;99.90;;;;;;20852531;28;20052;-45
2022/01/28 11:49:53;;;;;;;2.28;0.45;;;10.40;99.90;;;;;;20851630;28;20098;-45
2022/01/28 12:00:24;;;;;;;1.73;0.25;;;9.60;99.90;;;;;;20851100;28;20041;-45
2022/01/28 12:10:25;;;;;;;1.20;0.57;;;10.70;99.90;;;;;;20846434;28;20026;-45
2022/01/28 12:20:41;;;;;;;2.40;0.50;;;11.50;99.90;;;;;;20848468;28;20052;-45
2022/01/28 12:30:44;;;;;;;1.60;0.17;;;11.40;99.90;;;;;;20841088;28;20056;-45
2022/01/28 12:40:48;;;;;;;2.40;0.30;;;11.30;99.90;;;;;;20837095;28;20480;-45
2022/01/28 12:50:50;;;;;;;1.23;0.30;;;11.70;99.90;;;;;;20832116;28;20049;-45
2022/01/28 13:00:51;;;;;;;1.45;0.40;;;12.20;99.90;;;;;;20841904;28;20509;-45
2022/01/28 13:10:52;;;;;;;2.45;0.30;;;10.80;99.90;;;;;;20850237;28;20091;-45
2022/01/28 13:20:53;;;;;;;4.00;1.00;;;11.40;99.90;;;;;;20840291;28;20053;-45
2022/01/28 13:30:56;;;;;;;2.58;0.43;;;11.40;99.90;;;;;;20807448;28;21934;-45
2022/01/28 13:40:56;;;;;;;2.10;0.60;;;12.30;99.90;;;;;;20816733;28;20083;-45
2022/01/28 13:51:07;;;;;;;1.27;0.47;;;11.30;99.90;;;;;;20845875;28;20049;-45
2022/01/28 14:01:09;;;;;;;4.25;0.60;;;10.70;99.90;;;;;;20837307;28;20492;-45
2022/01/28 14:11:35;;;;;;;6.75;1.00;;;9.90;99.90;;;;;;20842348;28;20037;-45
2022/01/28 14:21:46;;;;;;;2.42;0.90;;;9.50;99.90;;;;;;20856297;28;20488;-45
2022/01/28 14:31:47;;;;;;;2.28;0.57;;;9.20;99.90;;;;;;20848148;28;20044;-45
2022/01/28 14:41:49;;;;;;;2.95;0.77;;;9.50;99.90;;;;;;20838137;28;20044;-45
2022/01/28 14:51:53;;;;;;;5.03;1.00;;;9.70;99.90;;;;;;20840232;28;20184;-45
2022/01/28 15:01:55;;;;;;;4.38;0.77;;;9.60;99.90;;;;;;20847863;28;20386;-45
2022/01/28 15:11:56;;;;;;;3.67;0.73;;;9.70;99.90;;;;;;20849778;28;20448;-45
2022/01/28 15:21:57;;;;;;;3.38;0.73;;;9.50;99.90;;;;;;20837119;28;20438;-45
2022/01/28 15:42:18;;;;;;;7.53;1.02;;;9.00;99.90;;;;;;20845828;28;20296;-45
2022/01/28 15:52:20;;;;;;;5.35;0.65;;;8.90;99.90;;;;;;20848879;28;20047;-45
2022/01/28 16:02:20;;;;;;;5.20;1.75;;;8.70;99.90;;;;;;20828811;28;20049;-45
2022/01/28 16:12:48;;;;;;;2.55;1.20;;;8.60;99.90;;;;;;20852640;28;20520;-45
2022/01/28 16:22:48;;;;;;;3.40;1.33;;;8.50;99.90;;;;;;20848934;28;20586;-45
2022/01/28 16:32:49;;;;;;;13.43;4.38;;;8.50;99.90;;;;;;20849207;28;20473;-45
2022/01/28 16:42:54;;;;;;;13.45;5.45;;;8.20;99.90;;;;;;20844389;28;20489;-45
2022/01/28 16:52:55;;;;;;;10.75;5.18;;;8.00;99.90;;;;;;20834799;28;20103;-45
2022/01/28 17:02:56;;;;;;;14.40;6.13;;;7.90;99.90;;;;;;20855400;28;20041;-45
2022/01/28 17:12:57;;;;;;;13.23;6.28;;;7.90;99.90;;;;;;20855254;28;20500;-45
2022/01/28 17:22:58;;;;;;;14.63;4.07;;;7.90;99.90;;;;;;20862032;28;20051;-45
2022/01/28 17:32:58;;;;;;;17.58;3.58;;;7.80;99.90;;;;;;20843630;28;20041;-45
2022/01/28 17:43:03;;;;;;;9.82;3.25;;;7.70;99.90;;;;;;20866654;28;20717;-45
2022/01/28 17:53:04;;;;;;;18.23;3.53;;;7.60;99.90;;;;;;20843762;28;20037;-45
2022/01/28 18:03:05;;;;;;;7.87;3.73;;;7.60;99.90;;;;;;20844196;28;20317;-45
2022/01/28 18:13:07;;;;;;;13.25;4.60;;;7.50;99.90;;;;;;20846388;28;20128;-45
2022/01/28 18:23:08;;;;;;;8.27;3.95;;;7.50;99.90;;;;;;20830281;28;20049;-45
2022/01/28 18:33:09;;;;;;;13.40;4.43;;;7.40;99.90;;;;;;20868091;28;20039;-45
2022/01/28 18:43:16;;;;;;;14.77;5.20;;;7.20;99.90;;;;;;20830743;28;20042;-45
2022/01/28 18:53:16;;;;;;;21.75;7.30;;;7.10;99.90;;;;;;20862544;28;20531;-45
2022/01/28 19:03:17;;;;;;;16.60;6.63;;;7.20;99.90;;;;;;20846174;28;20045;-45
2022/01/28 19:13:18;;;;;;;23.67;7.93;;;7.10;99.90;;;;;;20835261;28;20078;-45
2022/01/28 19:23:19;;;;;;;27.02;8.35;;;7.00;99.90;;;;;;20834099;28;20547;-45
2022/01/28 19:33:19;;;;;;;26.40;9.20;;;7.00;99.90;;;;;;20838278;28;20032;-45
2022/01/28 19:43:20;;;;;;;22.67;8.03;;;7.00;99.90;;;;;;20850416;28;20042;-45
2022/01/28 19:53:21;;;;;;;19.92;6.50;;;7.00;99.90;;;;;;20847568;28;20784;-45
2022/01/28 20:03:22;;;;;;;29.05;8.43;;;7.00;99.90;;;;;;20819970;28;20394;-45
2022/01/28 20:13:22;;;;;;;20.65;5.95;;;7.00;99.90;;;;;;20834568;28;20131;-45
2022/01/28 20:23:23;;;;;;;21.97;8.03;;;7.00;99.90;;;;;;20811616;28;20366;-45
2022/01/28 20:33:26;;;;;;;18.77;7.23;;;7.10;99.90;;;;;;20832146;28;20295;-45
2022/01/28 20:43:27;;;;;;;18.67;6.55;;;7.30;99.90;;;;;;20814100;28;20857;-45
2022/01/28 20:53:28;;;;;;;21.92;6.88;;;7.20;99.90;;;;;;20815031;28;20046;-45
2022/01/28 21:03:29;;;;;;;21.13;6.97;;;7.20;99.90;;;;;;20839959;28;20129;-45
2022/01/28 21:13:31;;;;;;;17.85;6.60;;;7.30;99.90;;;;;;20820034;28;20048;-45
2022/01/28 21:23:32;;;;;;;20.55;7.45;;;7.40;99.90;;;;;;20844927;28;20564;-45
2022/01/28 21:33:33;;;;;;;21.38;7.70;;;7.30;99.90;;;;;;20812101;28;20040;-45
2022/01/28 21:43:34;;;;;;;16.00;5.90;;;7.30;99.90;;;;;;20822733;28;20431;-45
2022/01/28 21:53:35;;;;;;;16.48;7.28;;;7.40;99.90;;;;;;20787404;28;20733;-45
2022/01/28 22:03:35;;;;;;;13.57;6.20;;;7.40;99.90;;;;;;20828727;28;20057;-45
2022/01/28 22:13:36;;;;;;;20.63;6.00;;;7.30;99.90;;;;;;20838090;28;20087;-45
2022/01/28 22:23:40;;;;;;;11.20;4.70;;;7.30;99.90;;;;;;20821365;28;20362;-45
2022/01/28 22:33:41;;;;;;;11.10;3.90;;;7.30;99.90;;;;;;20817413;28;20040;-45
2022/01/28 22:43:42;;;;;;;14.60;4.95;;;7.30;99.90;;;;;;20832997;28;20057;-45
2022/01/28 22:53:43;;;;;;;15.52;4.63;;;7.40;99.90;;;;;;20866689;28;20044;-45
2022/01/28 23:03:46;;;;;;;10.48;4.82;;;7.40;99.90;;;;;;20828212;28;20049;-45
2022/01/28 23:13:48;;;;;;;14.45;5.18;;;7.40;99.90;;;;;;20831097;28;20045;-45
2022/01/28 23:23:49;;;;;;;17.55;5.60;;;7.50;99.90;;;;;;20833145;28;20505;-45
2022/01/28 23:33:50;;;;;;;17.93;6.27;;;7.40;99.90;;;;;;20839939;28;20668;-45
2022/01/28 23:43:51;;;;;;;13.53;5.57;;;7.40;99.90;;;;;;20840581;28;20357;-45
2022/01/28 23:53:51;;;;;;;14.95;5.70;;;7.30;99.90;;;;;;20847342;28;20297;-45
